sensor_id;sensor_type;location;lat;lon;timestamp;temperature;humidity
44767;DHT22;30487;48.716;9.272;2023-07-31T00:00:11;17.40;99.90
44767;DHT22;30487;48.716;9.272;2023-07-31T00:02:38;17.50;99.90
44767;DHT22;30487;48.716;9.272;2023-07-31T00:05:04;17.50;99.90
44767;DHT22;30487;48.716;9.272;2023-07-31T00:07:29;17.50;99.90
44767;DHT22;30487;48.716;9.272;2023-07-31T00:09:55;17.50;99.90
44767;DHT22;30487;48.716;9.272;2023-07-31T00:12:22;17.50;99.90
44767;DHT22;30487;48.716;9.272;2023-07-31T00:14:47;17.50;99.90
44767;DHT22;30487;48.716;9.272;2023-07-31T00:17:13;17.50;99.90
44767;DHT22;30487;48.716;9.272;2023-07-31T00:19:39;17.50;99.90
44767;DHT22;30487;48.716;9.272;2023-07-31T00:22:05;17.50;99.90
44767;DHT22;30487;48.716;9.272;2023-07-31T00:24:30;17.40;99.90
44767;DHT22;30487;48.716;9.272;2023-07-31T00:26:56;17.40;99.90
44767;DHT22;30487;48.716;9.272;2023-07-31T00:29:21;17.30;99.90
44767;DHT22;30487;48.716;9.272;2023-07-31T00:31:47;17.30;99.90
44767;DHT22;30487;48.716;9.272;2023-07-31T00:34:12;17.20;99.90
44767;DHT22;30487;48.716;9.272;2023-07-31T00:36:38;17.20;99.90
44767;DHT22;30487;48.716;9.272;2023-07-31T00:39:04;17.20;99.90
44767;DHT22;30487;48.716;9.272;2023-07-31T00:41:30;17.20;99.90
44767;DHT22;30487;48.716;9.272;2023-07-31T00:43:55;17.00;99.90
44767;DHT22;30487;48.716;9.272;2023-07-31T00:46:21;17.00;99.90
44767;DHT22;30487;48.716;9.272;2023-07-31T00:48:47;17.00;99.90
44767;DHT22;30487;48.716;9.272;2023-07-31T00:51:12;16.90;99.90
44767;DHT22;30487;48.716;9.272;2023-07-31T00:53:38;16.80;99.90
44767;DHT22;30487;48.716;9.272;2023-07-31T00:56:05;16.70;99.90
44767;DHT22;30487;48.716;9.272;2023-07-31T00:58:31;16.60;99.90
44767;DHT22;30487;48.716;9.272;2023-07-31T01:00:57;16.50;99.90
44767;DHT22;30487;48.716;9.272;2023-07-31T01:03:22;16.50;99.90
44767;DHT22;30487;48.716;9.272;2023-07-31T01:09:01;16.70;99.90
44767;DHT22;30487;48.716;9.272;2023-07-31T01:11:30;16.70;99.90
44767;DHT22;30487;48.716;9.272;2023-07-31T01:13:57;16.70;99.90
44767;DHT22;30487;48.716;9.272;2023-07-31T01:16:23;16.60;99.90
44767;DHT22;30487;48.716;9.272;2023-07-31T01:18:48;16.60;99.90
44767;DHT22;30487;48.716;9.272;2023-07-31T01:26:53;16.50;99.90
44767;DHT22;30487;48.716;9.272;2023-07-31T01:31:53;16.60;99.90
44767;DHT22;30487;48.716;9.272;2023-07-31T01:34:21;16.50;99.90
44767;DHT22;30487;48.716;9.272;2023-07-31T01:36:47;16.50;99.90
44767;DHT22;30487;48.716;9.272;2023-07-31T01:39:13;16.50;99.90
44767;DHT22;30487;48.716;9.272;2023-07-31T01:41:40;16.60;99.90
44767;DHT22;30487;48.716;9.272;2023-07-31T01:44:06;16.50;99.90
44767;DHT22;30487;48.716;9.272;2023-07-31T01:46:32;16.50;99.90
44767;DHT22;30487;48.716;9.272;2023-07-31T01:48:57;16.50;99.90
44767;DHT22;30487;48.716;9.272;2023-07-31T01:51:23;16.50;99.90
44767;DHT22;30487;48.716;9.272;2023-07-31T01:53:48;16.50;99.90
44767;DHT22;30487;48.716;9.272;2023-07-31T01:56:14;16.40;99.90
44767;DHT22;30487;48.716;9.272;2023-07-31T01:58:39;16.30;99.90
44767;DHT22;30487;48.716;9.272;2023-07-31T02:01:05;16.30;99.90
44767;DHT22;30487;48.716;9.272;2023-07-31T02:03:30;16.30;99.90
44767;DHT22;30487;48.716;9.272;2023-07-31T02:05:56;16.30;99.90
44767;DHT22;30487;48.716;9.272;2023-07-31T02:08:22;16.30;99.90
44767;DHT22;30487;48.716;9.272;2023-07-31T02:10:47;16.30;99.90
44767;DHT22;30487;48.716;9.272;2023-07-31T02:13:13;16.30;99.90
44767;DHT22;30487;48.716;9.272;2023-07-31T02:15:38;16.40;99.90
44767;DHT22;30487;48.716;9.272;2023-07-31T02:18:04;16.40;99.90
44767;DHT22;30487;48.716;9.272;2023-07-31T02:20:30;16.40;99.90
44767;DHT22;30487;48.716;9.272;2023-07-31T02:22:58;16.40;99.90
44767;DHT22;30487;48.716;9.272;2023-07-31T02:25:23;16.40;99.90
44767;DHT22;30487;48.716;9.272;2023-07-31T02:27:49;16.40;99.90
44767;DHT22;30487;48.716;9.272;2023-07-31T02:30:14;16.30;99.90
44767;DHT22;30487;48.716;9.272;2023-07-31T02:32:40;16.30;99.90
44767;DHT22;30487;48.716;9.272;2023-07-31T02:35:06;16.30;99.90
44767;DHT22;30487;48.716;9.272;2023-07-31T02:37:31;16.20;99.90
44767;DHT22;30487;48.716;9.272;2023-07-31T02:39:57;16.30;99.90
44767;DHT22;30487;48.716;9.272;2023-07-31T02:42:22;16.30;99.90
44767;DHT22;30487;48.716;9.272;2023-07-31T02:44:48;16.30;99.90
44767;DHT22;30487;48.716;9.272;2023-07-31T02:47:14;16.40;99.90
44767;DHT22;30487;48.716;9.272;2023-07-31T02:49:40;16.40;99.90
44767;DHT22;30487;48.716;9.272;2023-07-31T02:52:05;16.40;99.90
44767;DHT22;30487;48.716;9.272;2023-07-31T02:54:31;16.40;99.90
44767;DHT22;30487;48.716;9.272;2023-07-31T02:56:57;16.40;99.90
44767;DHT22;30487;48.716;9.272;2023-07-31T02:59:22;16.40;99.90
44767;DHT22;30487;48.716;9.272;2023-07-31T03:01:48;16.40;99.90
44767;DHT22;30487;48.716;9.272;2023-07-31T03:04:13;16.40;99.90
44767;DHT22;30487;48.716;9.272;2023-07-31T03:06:39;16.40;99.90
44767;DHT22;30487;48.716;9.272;2023-07-31T03:09:04;16.30;99.90
44767;DHT22;30487;48.716;9.272;2023-07-31T03:11:30;16.30;99.90
44767;DHT22;30487;48.716;9.272;2023-07-31T03:13:55;16.20;99.90
44767;DHT22;30487;48.716;9.272;2023-07-31T03:16:21;16.20;99.90
44767;DHT22;30487;48.716;9.272;2023-07-31T03:18:46;16.20;99.90
44767;DHT22;30487;48.716;9.272;2023-07-31T03:21:12;16.20;99.90
44767;DHT22;30487;48.716;9.272;2023-07-31T03:23:38;16.20;99.90
44767;DHT22;30487;48.716;9.272;2023-07-31T03:26:06;16.20;99.90
44767;DHT22;30487;48.716;9.272;2023-07-31T03:28:32;16.20;99.90
44767;DHT22;30487;48.716;9.272;2023-07-31T03:30:58;16.20;99.90
44767;DHT22;30487;48.716;9.272;2023-07-31T03:33:23;16.10;99.90
44767;DHT22;30487;48.716;9.272;2023-07-31T03:35:49;16.00;99.90
44767;DHT22;30487;48.716;9.272;2023-07-31T03:38:14;16.00;99.90
44767;DHT22;30487;48.716;9.272;2023-07-31T03:40:40;16.00;99.90
44767;DHT22;30487;48.716;9.272;2023-07-31T03:43:06;16.00;99.90
44767;DHT22;30487;48.716;9.272;2023-07-31T03:45:31;16.10;99.90
44767;DHT22;30487;48.716;9.272;2023-07-31T03:47:57;16.10;99.90
44767;DHT22;30487;48.716;9.272;2023-07-31T03:50:22;16.10;99.90
44767;DHT22;30487;48.716;9.272;2023-07-31T03:52:48;16.20;99.90
44767;DHT22;30487;48.716;9.272;2023-07-31T03:55:14;16.20;99.90
44767;DHT22;30487;48.716;9.272;2023-07-31T03:57:39;16.10;99.90
44767;DHT22;30487;48.716;9.272;2023-07-31T04:00:05;16.10;99.90
44767;DHT22;30487;48.716;9.272;2023-07-31T04:02:31;16.10;99.90
44767;DHT22;30487;48.716;9.272;2023-07-31T04:04:56;16.10;99.90
44767;DHT22;30487;48.716;9.272;2023-07-31T04:07:22;16.10;99.90
44767;DHT22;30487;48.716;9.272;2023-07-31T04:09:47;16.20;99.90
44767;DHT22;30487;48.716;9.272;2023-07-31T04:12:13;16.20;99.90
44767;DHT22;30487;48.716;9.272;2023-07-31T04:14:38;16.20;99.90
44767;DHT22;30487;48.716;9.272;2023-07-31T04:17:04;16.20;99.90
44767;DHT22;30487;48.716;9.272;2023-07-31T04:19:29;16.10;99.90
44767;DHT22;30487;48.716;9.272;2023-07-31T04:21:55;16.00;99.90
44767;DHT22;30487;48.716;9.272;2023-07-31T04:24:20;15.90;99.90
44767;DHT22;30487;48.716;9.272;2023-07-31T04:26:53;15.90;99.90
44767;DHT22;30487;48.716;9.272;2023-07-31T04:29:19;15.90;99.90
44767;DHT22;30487;48.716;9.272;2023-07-31T04:31:45;16.00;99.90
44767;DHT22;30487;48.716;9.272;2023-07-31T04:34:10;16.00;99.90
44767;DHT22;30487;48.716;9.272;2023-07-31T04:36:37;16.10;99.90
44767;DHT22;30487;48.716;9.272;2023-07-31T04:39:03;16.20;99.90
44767;DHT22;30487;48.716;9.272;2023-07-31T04:41:28;16.20;99.90
44767;DHT22;30487;48.716;9.272;2023-07-31T04:43:54;16.30;99.90
44767;DHT22;30487;48.716;9.272;2023-07-31T04:46:19;16.40;99.90
44767;DHT22;30487;48.716;9.272;2023-07-31T04:48:45;16.40;99.90
44767;DHT22;30487;48.716;9.272;2023-07-31T04:51:10;16.40;99.90
44767;DHT22;30487;48.716;9.272;2023-07-31T04:53:36;16.50;99.90
44767;DHT22;30487;48.716;9.272;2023-07-31T04:56:01;16.50;99.90
44767;DHT22;30487;48.716;9.272;2023-07-31T04:58:27;16.50;99.90
44767;DHT22;30487;48.716;9.272;2023-07-31T05:00:53;16.60;99.90
44767;DHT22;30487;48.716;9.272;2023-07-31T05:03:18;16.60;99.90
44767;DHT22;30487;48.716;9.272;2023-07-31T05:05:44;16.70;99.90
44767;DHT22;30487;48.716;9.272;2023-07-31T05:08:09;16.80;99.90
44767;DHT22;30487;48.716;9.272;2023-07-31T05:10:35;16.80;99.90
44767;DHT22;30487;48.716;9.272;2023-07-31T05:13:00;16.80;99.90
44767;DHT22;30487;48.716;9.272;2023-07-31T05:15:26;16.80;99.90
44767;DHT22;30487;48.716;9.272;2023-07-31T05:17:51;16.80;99.90
44767;DHT22;30487;48.716;9.272;2023-07-31T05:20:17;16.90;99.90
44767;DHT22;30487;48.716;9.272;2023-07-31T05:22:43;16.90;99.90
44767;DHT22;30487;48.716;9.272;2023-07-31T05:25:08;17.00;99.90
44767;DHT22;30487;48.716;9.272;2023-07-31T05:27:34;17.00;99.90
44767;DHT22;30487;48.716;9.272;2023-07-31T05:29:59;17.10;99.90
44767;DHT22;30487;48.716;9.272;2023-07-31T05:32:25;17.10;99.90
44767;DHT22;30487;48.716;9.272;2023-07-31T05:34:51;17.20;99.90
44767;DHT22;30487;48.716;9.272;2023-07-31T05:37:17;17.30;99.90
44767;DHT22;30487;48.716;9.272;2023-07-31T05:39:43;17.40;99.90
44767;DHT22;30487;48.716;9.272;2023-07-31T05:42:09;17.50;99.90
44767;DHT22;30487;48.716;9.272;2023-07-31T05:44:34;17.50;99.90
44767;DHT22;30487;48.716;9.272;2023-07-31T05:47:00;17.50;99.90
44767;DHT22;30487;48.716;9.272;2023-07-31T05:49:26;17.60;99.90
44767;DHT22;30487;48.716;9.272;2023-07-31T05:51:51;17.60;99.90
44767;DHT22;30487;48.716;9.272;2023-07-31T05:54:17;17.70;99.90
44767;DHT22;30487;48.716;9.272;2023-07-31T05:56:42;17.80;99.90
44767;DHT22;30487;48.716;9.272;2023-07-31T05:59:09;17.80;99.90
44767;DHT22;30487;48.716;9.272;2023-07-31T06:01:35;17.90;99.90
44767;DHT22;30487;48.716;9.272;2023-07-31T06:04:01;17.90;99.90
44767;DHT22;30487;48.716;9.272;2023-07-31T06:06:28;18.00;99.90
44767;DHT22;30487;48.716;9.272;2023-07-31T06:08:54;18.00;99.90
44767;DHT22;30487;48.716;9.272;2023-07-31T06:11:20;18.00;99.90
44767;DHT22;30487;48.716;9.272;2023-07-31T06:13:46;18.10;99.90
44767;DHT22;30487;48.716;9.272;2023-07-31T06:16:13;18.10;99.90
44767;DHT22;30487;48.716;9.272;2023-07-31T06:18:39;18.20;99.90
44767;DHT22;30487;48.716;9.272;2023-07-31T06:21:05;18.30;99.90
44767;DHT22;30487;48.716;9.272;2023-07-31T06:23:31;18.40;99.90
44767;DHT22;30487;48.716;9.272;2023-07-31T06:25:56;18.40;99.90
44767;DHT22;30487;48.716;9.272;2023-07-31T06:28:30;18.50;99.90
44767;DHT22;30487;48.716;9.272;2023-07-31T06:31:00;18.50;99.90
44767;DHT22;30487;48.716;9.272;2023-07-31T06:33:26;18.50;99.90
44767;DHT22;30487;48.716;9.272;2023-07-31T06:35:52;18.60;99.90
44767;DHT22;30487;48.716;9.272;2023-07-31T06:38:24;18.60;99.90
44767;DHT22;30487;48.716;9.272;2023-07-31T06:40:50;18.70;99.90
44767;DHT22;30487;48.716;9.272;2023-07-31T06:43:15;18.80;99.90
44767;DHT22;30487;48.716;9.272;2023-07-31T06:45:41;18.90;99.90
44767;DHT22;30487;48.716;9.272;2023-07-31T06:48:07;19.00;99.90
44767;DHT22;30487;48.716;9.272;2023-07-31T06:50:33;19.10;99.90
44767;DHT22;30487;48.716;9.272;2023-07-31T06:52:59;19.20;99.90
44767;DHT22;30487;48.716;9.272;2023-07-31T06:55:24;19.30;99.90
44767;DHT22;30487;48.716;9.272;2023-07-31T06:57:52;19.30;99.90
44767;DHT22;30487;48.716;9.272;2023-07-31T07:00:18;19.40;99.90
44767;DHT22;30487;48.716;9.272;2023-07-31T07:02:44;19.40;99.90
44767;DHT22;30487;48.716;9.272;2023-07-31T07:05:12;19.50;99.90
44767;DHT22;30487;48.716;9.272;2023-07-31T07:07:37;19.60;99.90
44767;DHT22;30487;48.716;9.272;2023-07-31T07:10:03;19.60;99.90
44767;DHT22;30487;48.716;9.272;2023-07-31T07:12:30;19.70;99.90
44767;DHT22;30487;48.716;9.272;2023-07-31T07:14:56;19.80;99.90
44767;DHT22;30487;48.716;9.272;2023-07-31T07:17:23;19.90;99.90
44767;DHT22;30487;48.716;9.272;2023-07-31T07:19:48;20.00;99.90
44767;DHT22;30487;48.716;9.272;2023-07-31T07:22:14;20.10;99.90
44767;DHT22;30487;48.716;9.272;2023-07-31T07:24:41;20.20;99.90
44767;DHT22;30487;48.716;9.272;2023-07-31T07:27:07;20.30;99.90
44767;DHT22;30487;48.716;9.272;2023-07-31T07:29:34;20.30;99.90
44767;DHT22;30487;48.716;9.272;2023-07-31T07:31:59;20.30;99.90
44767;DHT22;30487;48.716;9.272;2023-07-31T07:34:26;20.30;99.90
44767;DHT22;30487;48.716;9.272;2023-07-31T07:36:53;20.30;99.90
44767;DHT22;30487;48.716;9.272;2023-07-31T07:39:19;20.20;99.90
44767;DHT22;30487;48.716;9.272;2023-07-31T07:41:44;20.20;99.90
44767;DHT22;30487;48.716;9.272;2023-07-31T07:44:10;20.10;99.90
44767;DHT22;30487;48.716;9.272;2023-07-31T07:46:35;20.10;99.90
44767;DHT22;30487;48.716;9.272;2023-07-31T07:49:01;20.10;99.90
44767;DHT22;30487;48.716;9.272;2023-07-31T07:51:26;20.20;99.90
44767;DHT22;30487;48.716;9.272;2023-07-31T07:53:52;20.30;99.90
44767;DHT22;30487;48.716;9.272;2023-07-31T07:56:17;20.40;99.90
44767;DHT22;30487;48.716;9.272;2023-07-31T07:58:43;20.50;99.90
44767;DHT22;30487;48.716;9.272;2023-07-31T08:01:08;20.60;99.90
44767;DHT22;30487;48.716;9.272;2023-07-31T08:03:34;20.80;99.90
44767;DHT22;30487;48.716;9.272;2023-07-31T08:06:00;21.00;99.90
44767;DHT22;30487;48.716;9.272;2023-07-31T08:08:27;21.20;99.90
44767;DHT22;30487;48.716;9.272;2023-07-31T08:10:52;21.30;99.90
44767;DHT22;30487;48.716;9.272;2023-07-31T08:13:18;21.30;99.90
44767;DHT22;30487;48.716;9.272;2023-07-31T08:15:44;21.50;99.90
44767;DHT22;30487;48.716;9.272;2023-07-31T08:18:10;21.60;99.90
44767;DHT22;30487;48.716;9.272;2023-07-31T08:20:37;21.70;99.90
44767;DHT22;30487;48.716;9.272;2023-07-31T08:23:02;21.60;99.90
44767;DHT22;30487;48.716;9.272;2023-07-31T08:25:28;21.60;99.10
44767;DHT22;30487;48.716;9.272;2023-07-31T08:27:54;21.70;99.30
44767;DHT22;30487;48.716;9.272;2023-07-31T08:30:19;21.70;98.90
44767;DHT22;30487;48.716;9.272;2023-07-31T08:32:45;21.80;98.20
44767;DHT22;30487;48.716;9.272;2023-07-31T08:35:11;21.90;98.30
44767;DHT22;30487;48.716;9.272;2023-07-31T08:37:38;22.00;98.90
44767;DHT22;30487;48.716;9.272;2023-07-31T08:40:04;22.10;98.30
44767;DHT22;30487;48.716;9.272;2023-07-31T08:42:30;22.10;97.80
44767;DHT22;30487;48.716;9.272;2023-07-31T08:44:56;22.30;97.70
44767;DHT22;30487;48.716;9.272;2023-07-31T08:47:23;22.40;96.90
44767;DHT22;30487;48.716;9.272;2023-07-31T08:49:50;22.60;96.50
44767;DHT22;30487;48.716;9.272;2023-07-31T08:52:16;22.70;96.90
44767;DHT22;30487;48.716;9.272;2023-07-31T08:54:42;22.90;95.50
44767;DHT22;30487;48.716;9.272;2023-07-31T08:57:08;22.90;95.20
44767;DHT22;30487;48.716;9.272;2023-07-31T08:59:35;23.00;94.40
44767;DHT22;30487;48.716;9.272;2023-07-31T09:02:07;23.00;94.50
44767;DHT22;30487;48.716;9.272;2023-07-31T09:04:33;22.90;94.40
44767;DHT22;30487;48.716;9.272;2023-07-31T09:07:03;23.00;94.40
44767;DHT22;30487;48.716;9.272;2023-07-31T09:09:30;23.10;94.10
44767;DHT22;30487;48.716;9.272;2023-07-31T09:11:57;23.00;93.90
44767;DHT22;30487;48.716;9.272;2023-07-31T09:14:24;23.00;93.50
44767;DHT22;30487;48.716;9.272;2023-07-31T09:16:54;23.20;93.30
44767;DHT22;30487;48.716;9.272;2023-07-31T09:19:27;23.40;92.70
44767;DHT22;30487;48.716;9.272;2023-07-31T09:21:53;23.30;93.00
44767;DHT22;30487;48.716;9.272;2023-07-31T09:24:32;23.50;93.00
44767;DHT22;30487;48.716;9.272;2023-07-31T09:26:59;23.60;92.40
44767;DHT22;30487;48.716;9.272;2023-07-31T09:29:26;23.80;92.50
44767;DHT22;30487;48.716;9.272;2023-07-31T09:31:52;23.90;92.80
44767;DHT22;30487;48.716;9.272;2023-07-31T09:34:18;23.70;92.40
44767;DHT22;30487;48.716;9.272;2023-07-31T09:36:49;23.80;92.80
44767;DHT22;30487;48.716;9.272;2023-07-31T09:39:16;23.90;91.90
44767;DHT22;30487;48.716;9.272;2023-07-31T09:41:47;23.80;92.10
44767;DHT22;30487;48.716;9.272;2023-07-31T09:44:18;23.70;91.80
44767;DHT22;30487;48.716;9.272;2023-07-31T09:46:44;23.90;92.40
44767;DHT22;30487;48.716;9.272;2023-07-31T09:49:10;23.90;92.10
44767;DHT22;30487;48.716;9.272;2023-07-31T09:51:41;23.70;91.60
44767;DHT22;30487;48.716;9.272;2023-07-31T09:54:14;23.40;91.60
44767;DHT22;30487;48.716;9.272;2023-07-31T09:56:45;23.20;91.80
44767;DHT22;30487;48.716;9.272;2023-07-31T09:59:13;23.10;91.70
44767;DHT22;30487;48.716;9.272;2023-07-31T10:01:40;23.10;92.20
44767;DHT22;30487;48.716;9.272;2023-07-31T10:04:08;23.20;92.10
44767;DHT22;30487;48.716;9.272;2023-07-31T10:06:35;23.20;92.40
44767;DHT22;30487;48.716;9.272;2023-07-31T10:09:02;23.30;92.40
44767;DHT22;30487;48.716;9.272;2023-07-31T10:11:30;23.30;92.00
44767;DHT22;30487;48.716;9.272;2023-07-31T10:13:59;23.30;92.30
44767;DHT22;30487;48.716;9.272;2023-07-31T10:16:25;23.20;92.10
44767;DHT22;30487;48.716;9.272;2023-07-31T10:18:51;23.20;92.70
44767;DHT22;30487;48.716;9.272;2023-07-31T10:21:18;23.20;92.20
44767;DHT22;30487;48.716;9.272;2023-07-31T10:23:47;23.20;92.40
44767;DHT22;30487;48.716;9.272;2023-07-31T10:26:16;23.30;92.40
44767;DHT22;30487;48.716;9.272;2023-07-31T10:28:43;23.60;92.40
44767;DHT22;30487;48.716;9.272;2023-07-31T10:31:09;23.80;91.60
44767;DHT22;30487;48.716;9.272;2023-07-31T10:33:35;23.90;92.00
44767;DHT22;30487;48.716;9.272;2023-07-31T10:36:33;24.30;92.20
44767;DHT22;30487;48.716;9.272;2023-07-31T10:38:59;24.60;89.60
44767;DHT22;30487;48.716;9.272;2023-07-31T10:41:29;24.60;88.60
44767;DHT22;30487;48.716;9.272;2023-07-31T10:43:58;24.50;89.00
44767;DHT22;30487;48.716;9.272;2023-07-31T10:46:23;24.40;88.70
44767;DHT22;30487;48.716;9.272;2023-07-31T10:49:02;24.70;90.00
44767;DHT22;30487;48.716;9.272;2023-07-31T10:51:35;24.90;87.70
44767;DHT22;30487;48.716;9.272;2023-07-31T10:54:13;24.90;87.60
44767;DHT22;30487;48.716;9.272;2023-07-31T10:56:40;24.60;87.40
44767;DHT22;30487;48.716;9.272;2023-07-31T10:59:09;24.40;87.10
44767;DHT22;30487;48.716;9.272;2023-07-31T11:01:51;24.30;87.50
44767;DHT22;30487;48.716;9.272;2023-07-31T11:04:25;24.30;88.20
44767;DHT22;30487;48.716;9.272;2023-07-31T11:07:01;24.60;88.20
44767;DHT22;30487;48.716;9.272;2023-07-31T11:09:29;25.00;86.60
44767;DHT22;30487;48.716;9.272;2023-07-31T11:11:56;25.20;85.50
44767;DHT22;30487;48.716;9.272;2023-07-31T11:14:22;25.10;84.70
44767;DHT22;30487;48.716;9.272;2023-07-31T11:16:50;25.10;85.90
44767;DHT22;30487;48.716;9.272;2023-07-31T11:19:24;25.10;84.80
44767;DHT22;30487;48.716;9.272;2023-07-31T11:21:51;24.80;84.80
44767;DHT22;30487;48.716;9.272;2023-07-31T11:24:18;24.70;85.80
44767;DHT22;30487;48.716;9.272;2023-07-31T11:26:53;24.70;86.00
44767;DHT22;30487;48.716;9.272;2023-07-31T11:29:19;24.50;85.80
44767;DHT22;30487;48.716;9.272;2023-07-31T11:31:47;24.20;85.90
44767;DHT22;30487;48.716;9.272;2023-07-31T11:34:13;24.00;85.70
44767;DHT22;30487;48.716;9.272;2023-07-31T11:36:39;23.70;86.40
44767;DHT22;30487;48.716;9.272;2023-07-31T11:39:08;23.70;87.10
44767;DHT22;30487;48.716;9.272;2023-07-31T11:41:34;23.60;87.80
44767;DHT22;30487;48.716;9.272;2023-07-31T11:44:00;23.40;89.10
44767;DHT22;30487;48.716;9.272;2023-07-31T11:46:26;23.30;88.70
44767;DHT22;30487;48.716;9.272;2023-07-31T11:48:52;23.30;89.10
44767;DHT22;30487;48.716;9.272;2023-07-31T11:51:20;23.10;89.40
44767;DHT22;30487;48.716;9.272;2023-07-31T11:53:51;23.10;88.80
44767;DHT22;30487;48.716;9.272;2023-07-31T11:56:20;22.80;89.80
44767;DHT22;30487;48.716;9.272;2023-07-31T11:58:47;22.80;90.30
44767;DHT22;30487;48.716;9.272;2023-07-31T12:01:15;22.80;90.90
44767;DHT22;30487;48.716;9.272;2023-07-31T12:03:42;22.80;90.60
44767;DHT22;30487;48.716;9.272;2023-07-31T12:06:08;22.80;90.30
44767;DHT22;30487;48.716;9.272;2023-07-31T12:08:33;22.90;90.60
44767;DHT22;30487;48.716;9.272;2023-07-31T12:11:04;22.80;91.00
44767;DHT22;30487;48.716;9.272;2023-07-31T12:13:31;22.80;91.30
44767;DHT22;30487;48.716;9.272;2023-07-31T12:15:58;22.70;91.00
44767;DHT22;30487;48.716;9.272;2023-07-31T12:18:26;22.70;91.00
44767;DHT22;30487;48.716;9.272;2023-07-31T12:20:56;22.70;91.20
44767;DHT22;30487;48.716;9.272;2023-07-31T12:23:25;22.70;90.80
44767;DHT22;30487;48.716;9.272;2023-07-31T12:26:07;22.70;91.10
44767;DHT22;30487;48.716;9.272;2023-07-31T12:31:04;22.60;92.10
44767;DHT22;30487;48.716;9.272;2023-07-31T12:33:35;22.70;92.00
44767;DHT22;30487;48.716;9.272;2023-07-31T12:36:02;22.80;92.20
44767;DHT22;30487;48.716;9.272;2023-07-31T12:38:29;22.70;91.60
44767;DHT22;30487;48.716;9.272;2023-07-31T12:40:54;22.70;91.60
44767;DHT22;30487;48.716;9.272;2023-07-31T12:43:20;22.70;91.80
44767;DHT22;30487;48.716;9.272;2023-07-31T12:45:45;22.70;91.70
44767;DHT22;30487;48.716;9.272;2023-07-31T12:48:13;22.70;92.00
44767;DHT22;30487;48.716;9.272;2023-07-31T12:50:39;22.50;91.70
44767;DHT22;30487;48.716;9.272;2023-07-31T12:53:05;22.50;92.00
44767;DHT22;30487;48.716;9.272;2023-07-31T12:55:31;22.40;92.20
44767;DHT22;30487;48.716;9.272;2023-07-31T12:57:56;22.40;92.20
44767;DHT22;30487;48.716;9.272;2023-07-31T13:00:22;22.40;92.30
44767;DHT22;30487;48.716;9.272;2023-07-31T13:02:48;22.50;92.10
44767;DHT22;30487;48.716;9.272;2023-07-31T13:05:14;22.50;92.40
44767;DHT22;30487;48.716;9.272;2023-07-31T13:07:40;22.50;92.20
44767;DHT22;30487;48.716;9.272;2023-07-31T13:10:07;22.50;92.10
44767;DHT22;30487;48.716;9.272;2023-07-31T13:12:33;22.60;92.10
44767;DHT22;30487;48.716;9.272;2023-07-31T13:14:58;22.50;92.00
44767;DHT22;30487;48.716;9.272;2023-07-31T13:17:24;22.60;92.50
44767;DHT22;30487;48.716;9.272;2023-07-31T13:19:49;22.50;92.70
44767;DHT22;30487;48.716;9.272;2023-07-31T13:22:15;22.50;92.20
44767;DHT22;30487;48.716;9.272;2023-07-31T13:24:41;22.50;92.50
44767;DHT22;30487;48.716;9.272;2023-07-31T13:27:06;22.50;92.50
44767;DHT22;30487;48.716;9.272;2023-07-31T13:29:32;22.60;92.70
44767;DHT22;30487;48.716;9.272;2023-07-31T13:31:58;22.50;92.30
44767;DHT22;30487;48.716;9.272;2023-07-31T13:34:23;22.50;92.60
44767;DHT22;30487;48.716;9.272;2023-07-31T13:36:49;22.50;92.90
44767;DHT22;30487;48.716;9.272;2023-07-31T13:39:14;22.60;93.20
44767;DHT22;30487;48.716;9.272;2023-07-31T13:41:40;22.60;93.40
44767;DHT22;30487;48.716;9.272;2023-07-31T13:44:06;22.70;93.60
44767;DHT22;30487;48.716;9.272;2023-07-31T13:46:31;22.80;93.40
44767;DHT22;30487;48.716;9.272;2023-07-31T13:48:58;22.90;93.40
44767;DHT22;30487;48.716;9.272;2023-07-31T13:51:25;23.00;93.10
44767;DHT22;30487;48.716;9.272;2023-07-31T13:53:50;22.90;93.30
44767;DHT22;30487;48.716;9.272;2023-07-31T13:56:16;23.10;92.70
44767;DHT22;30487;48.716;9.272;2023-07-31T13:58:42;23.10;93.20
44767;DHT22;30487;48.716;9.272;2023-07-31T14:01:07;23.10;93.60
44767;DHT22;30487;48.716;9.272;2023-07-31T14:03:33;23.20;93.30
44767;DHT22;30487;48.716;9.272;2023-07-31T14:05:58;23.40;93.20
44767;DHT22;30487;48.716;9.272;2023-07-31T14:08:24;23.60;92.30
44767;DHT22;30487;48.716;9.272;2023-07-31T14:10:49;23.80;92.10
44767;DHT22;30487;48.716;9.272;2023-07-31T14:13:15;23.80;91.80
44767;DHT22;30487;48.716;9.272;2023-07-31T14:15:44;23.80;92.10
44767;DHT22;30487;48.716;9.272;2023-07-31T14:18:09;23.70;92.10
44767;DHT22;30487;48.716;9.272;2023-07-31T14:20:35;23.70;92.10
44767;DHT22;30487;48.716;9.272;2023-07-31T14:23:02;23.50;92.70
44767;DHT22;30487;48.716;9.272;2023-07-31T14:25:27;23.40;92.80
44767;DHT22;30487;48.716;9.272;2023-07-31T14:27:53;23.40;93.10
44767;DHT22;30487;48.716;9.272;2023-07-31T14:30:19;23.40;92.80
44767;DHT22;30487;48.716;9.272;2023-07-31T14:32:44;23.40;93.30
44767;DHT22;30487;48.716;9.272;2023-07-31T14:35:10;23.40;93.40
44767;DHT22;30487;48.716;9.272;2023-07-31T14:37:40;23.40;93.60
44767;DHT22;30487;48.716;9.272;2023-07-31T14:40:07;23.50;92.90
44767;DHT22;30487;48.716;9.272;2023-07-31T14:42:34;23.40;92.30
44767;DHT22;30487;48.716;9.272;2023-07-31T14:45:00;23.40;92.00
44767;DHT22;30487;48.716;9.272;2023-07-31T14:47:25;23.30;91.50
44767;DHT22;30487;48.716;9.272;2023-07-31T14:49:51;23.30;91.50
44767;DHT22;30487;48.716;9.272;2023-07-31T14:52:16;23.40;91.20
44767;DHT22;30487;48.716;9.272;2023-07-31T14:54:42;23.50;91.20
44767;DHT22;30487;48.716;9.272;2023-07-31T14:57:08;23.70;91.40
44767;DHT22;30487;48.716;9.272;2023-07-31T14:59:33;23.80;91.30
44767;DHT22;30487;48.716;9.272;2023-07-31T15:01:59;23.90;91.20
44767;DHT22;30487;48.716;9.272;2023-07-31T15:04:24;24.00;91.00
44767;DHT22;30487;48.716;9.272;2023-07-31T15:06:51;24.00;90.40
44767;DHT22;30487;48.716;9.272;2023-07-31T15:09:17;24.00;90.40
44767;DHT22;30487;48.716;9.272;2023-07-31T15:11:42;24.00;90.60
44767;DHT22;30487;48.716;9.272;2023-07-31T15:14:08;23.90;90.40
44767;DHT22;30487;48.716;9.272;2023-07-31T15:16:33;23.90;91.10
44767;DHT22;30487;48.716;9.272;2023-07-31T15:18:59;24.00;91.20
44767;DHT22;30487;48.716;9.272;2023-07-31T15:21:25;23.90;91.00
44767;DHT22;30487;48.716;9.272;2023-07-31T15:23:51;24.00;90.70
44767;DHT22;30487;48.716;9.272;2023-07-31T15:26:16;24.10;91.10
44767;DHT22;30487;48.716;9.272;2023-07-31T15:28:42;24.30;91.20
44767;DHT22;30487;48.716;9.272;2023-07-31T15:31:08;24.50;91.00
44767;DHT22;30487;48.716;9.272;2023-07-31T15:33:33;24.60;90.40
44767;DHT22;30487;48.716;9.272;2023-07-31T15:35:59;24.60;90.20
44767;DHT22;30487;48.716;9.272;2023-07-31T15:38:24;24.60;90.20